Brewster, WA

12:30 AM PDT on October 21, 2014 (GMT -0700)
South Twisp | Change Station
CLOSE
Current Station
Personal Weather Station
Location: Twisp, WA
Elevation: 1608 ft
Nearby Weather Stations

Elev 1608 ft 48.32 °N, 120.07 °W | Updated 5 seconds ago

Overcast
Overcast
47.1 °F
Feels Like 47 °F
N
0.0
Wind Variable Wind from ENE
Gusts 0.0 mph

Today
High -- | Low -- °F
--% Chance of Precip.
Yesterday
High -- | Low -- °F
Precip. -- in
7:27 AM 5:58 PM
Waning Crescent, 7% visible
Pressure 29.78 in
Visibility 10.0 miles
Clouds Overcast 2400 ft
Windchill 47 °F
Dew Point 47 °F
Humidity 99%
Rainfall 0.00 in
Snow Depth Not available.
UV 0 out of 12
Pollen 2.90 out of 12
Air Quality Not available.
Flu Activity Sporadic
METAR KOMK 210653Z AUTO 19005KT 10SM OVC024 12/09 A2977 RMK AO2 SLP082 T01170089

More Conditions Fewer Conditions

Pressure 29.78 in
Visibility 10.0 miles
Clouds Overcast 2400 ft
Windchill 47 °F
Dew Point 47 °F
Humidity 99%
Rainfall 0.00 in
Snow Depth Not available.
UV 0 out of 12
Pollen 2.90 out of 12
Air Quality Not available.
Flu Activity Sporadic
METAR KOMK 210653Z AUTO 19005KT 10SM OVC024 12/09 A2977 RMK AO2 SLP082 T01170089

More Conditions Fewer Conditions

10-Day Weather Forecast

Almanac

Astronomy

Oct. 21, 2014 Rise Set
Actual Time 7:27 AM PDT 5:58 PM PDT
Civil Twilight 6:56 AM PDT 6:30 PM PDT
Nautical Twilight 6:19 AM PDT 7:06 PM PDT
Astronomical Twilight 5:43 AM PDT 7:42 PM PDT
Moon 5:07 AM PDT 5:03 PM PDT
Length of Visible Light 11h 34m
Length of Day
10h 31m
Tomorrow will be 3m 20s shorter.
Waning Crescent, 7% of the Moon is Illuminated
Today
Waning Crescent
Oct 23
New
Oct 30
First Quarter
Nov 6
Full
Nov 14
Last Quarter

Today's Extremes

State Highs State Lows

Community

WunderPhotos

Upload Photos

1,763,619 photos uploaded!

Nearby

Snow Depth

Station Depth Elevation
Moses Mountain 0 in 5300 ft
Pope Ridge 1 in 3540 ft
Harts Pass 0 in 6500 ft
Park Creek Ridge 0 in 4600 ft
Stevens Pass 0 in 4070 ft

Earthquake Activity

City Distance Mag. Time & Date
No recent earthquake activity has been reported nearby.
Minimum magnitude displayed is 2.5.

Coastal Water Temperatures

Place Temperature
No Stations Reporting

Nearby Weather Stations